Terminal Aerodrome Forecast
Issued by NWS

Current Version | Previous Version | Text Only | Print | Product List | Glossary On
Versions: 1 2 3 4 5 6 7 8 9 10 11 12 13 14 15 16
000
FTUS41 KGYX 231721
TAFRKD
TAF
KRKD 231721Z 2318/2418 25008KT P6SM SCT070
     FM232200 18004KT P6SM BKN200
     FM240900 15008KT 5SM -SHRA BR OVC020
     FM241300 14010G20KT 3SM -RA BR OVC008=

USA.gov is the U.S. government's official web portal to all federal, state and local government web resources and services.